Time;durP1;ratioP1;P1;durP2;ratioP2;P2;SDS_P1;SDS_P2;PMS_P1;PMS_P2;Temp;Humidity;BMP_temperature;BMP_pressure;BME280_temperature;BME280_humidity;BME280_pressure;Samples;Min_cycle;Max_cycle;Signal;HPM_P1;HPM_P2
2021/03/15 00:00:09;;;;;;;5.23;1.70;;;;;;;;;;10364039;28;20758;-82
2021/03/15 00:05:13;;;;;;;5.40;1.73;;;;;;;;;;10366463;28;20398;-82
2021/03/15 00:10:15;;;;;;;6.23;1.60;;;;;;;;;;10356234;28;20683;-82
2021/03/15 00:15:18;;;;;;;8.10;1.83;;;;;;;;;;10360172;28;20224;-82
2021/03/15 00:20:22;;;;;;;7.63;1.90;;;;;;;;;;10353476;28;20323;-83
2021/03/15 00:25:24;;;;;;;6.40;1.77;;;;;;;;;;10363665;28;20678;-83
2021/03/15 00:30:26;;;;;;;5.97;1.87;;;;;;;;;;10356090;28;20851;-83
2021/03/15 00:35:29;;;;;;;7.90;2.10;;;;;;;;;;10362786;28;20298;-83
2021/03/15 00:40:34;;;;;;;5.53;1.80;;;;;;;;;;10355753;28;20240;-83
2021/03/15 00:45:36;;;;;;;5.87;1.63;;;;;;;;;;10362560;28;20562;-83
2021/03/15 00:50:41;;;;;;;6.07;1.70;;;;;;;;;;10357430;28;20216;-83
2021/03/15 00:55:43;;;;;;;5.47;1.80;;;;;;;;;;10351512;28;20268;-83
2021/03/15 01:00:46;;;;;;;4.00;1.43;;;;;;;;;;10364871;28;20237;-83
2021/03/15 01:05:50;;;;;;;5.80;1.80;;;;;;;;;;10355900;28;20315;-83
2021/03/15 01:10:52;;;;;;;5.37;1.73;;;;;;;;;;10360327;28;20588;-83
2021/03/15 01:15:54;;;;;;;4.77;1.53;;;;;;;;;;10365810;28;20323;-83
2021/03/15 01:20:57;;;;;;;5.83;1.80;;;;;;;;;;10363992;28;20239;-83
2021/03/15 01:25:59;;;;;;;6.13;1.57;;;;;;;;;;10356127;28;20648;-83
2021/03/15 01:31:01;;;;;;;7.00;1.53;;;;;;;;;;10373473;28;20858;-82
2021/03/15 01:36:05;;;;;;;3.80;1.50;;;;;;;;;;10365252;28;20213;-81
2021/03/15 01:41:08;;;;;;;3.70;1.60;;;;;;;;;;10365056;28;20243;-82
2021/03/15 01:46:10;;;;;;;4.20;1.80;;;;;;;;;;10366819;28;20361;-83
2021/03/15 01:51:14;;;;;;;3.70;1.60;;;;;;;;;;10365228;28;20371;-82
2021/03/15 01:56:17;;;;;;;6.23;2.00;;;;;;;;;;10365845;28;20216;-82
2021/03/15 02:01:19;;;;;;;4.93;1.80;;;;;;;;;;10364983;28;20491;-82
2021/03/15 02:06:22;;;;;;;6.47;1.67;;;;;;;;;;10369380;28;20673;-83
2021/03/15 02:11:28;;;;;;;3.63;1.60;;;;;;;;;;10365092;28;20218;-83
2021/03/15 02:16:37;;;;;;;6.67;2.10;;;;;;;;;;10380486;28;20216;-83
2021/03/15 02:21:54;;;;;;;4.60;1.80;;;;;;;;;;10381783;28;20247;-82
2021/03/15 02:27:14;;;;;;;6.33;2.00;;;;;;;;;;10393109;28;20245;-83
2021/03/15 02:32:31;;;;;;;6.10;2.23;;;;;;;;;;10376896;28;20223;-82
2021/03/15 02:37:35;;;;;;;7.37;2.10;;;;;;;;;;10396454;28;20668;-82
2021/03/15 02:42:39;;;;;;;5.67;2.30;;;;;;;;;;10368088;28;20235;-82
2021/03/15 02:47:42;;;;;;;3.57;2.10;;;;;;;;;;10362063;28;20299;-82
2021/03/15 02:52:46;;;;;;;5.40;2.20;;;;;;;;;;10361153;28;20220;-83
2021/03/15 02:57:48;;;;;;;5.80;2.37;;;;;;;;;;10365419;28;20698;-82
2021/03/15 03:02:51;;;;;;;5.37;2.20;;;;;;;;;;10361102;28;20236;-82
2021/03/15 03:07:55;;;;;;;6.17;2.60;;;;;;;;;;10365150;28;20217;-83
2021/03/15 03:12:57;;;;;;;3.87;2.20;;;;;;;;;;10366885;28;24954;-82
2021/03/15 03:18:01;;;;;;;6.17;2.40;;;;;;;;;;10364243;28;20216;-82
2021/03/15 03:23:05;;;;;;;6.93;2.43;;;;;;;;;;10362831;28;20594;-82
2021/03/15 03:28:08;;;;;;;7.70;2.40;;;;;;;;;;10368234;28;20303;-82
2021/03/15 03:33:11;;;;;;;6.93;3.00;;;;;;;;;;10360781;28;20310;-83
2021/03/15 03:38:15;;;;;;;8.07;3.07;;;;;;;;;;10357660;28;21124;-82
2021/03/15 03:43:17;;;;;;;12.63;3.43;;;;;;;;;;10363909;28;20236;-82
2021/03/15 03:48:19;;;;;;;9.97;2.87;;;;;;;;;;10360165;28;20236;-82
2021/03/15 03:53:24;;;;;;;9.37;2.90;;;;;;;;;;10355763;28;20217;-80
2021/03/15 03:58:30;;;;;;;11.83;3.27;;;;;;;;;;10360868;28;20235;-80
2021/03/15 04:03:33;;;;;;;7.00;2.93;;;;;;;;;;10357815;28;20247;-81
2021/03/15 04:08:39;;;;;;;11.00;2.90;;;;;;;;;;10359547;28;20222;-81
2021/03/15 04:13:42;;;;;;;7.87;2.60;;;;;;;;;;10363633;28;20227;-81
2021/03/15 04:18:46;;;;;;;7.40;2.70;;;;;;;;;;10358288;28;20313;-81
2021/03/15 04:23:50;;;;;;;8.30;2.63;;;;;;;;;;10352001;28;20246;-81
2021/03/15 04:28:53;;;;;;;9.07;2.87;;;;;;;;;;10361947;28;20312;-81
2021/03/15 04:33:56;;;;;;;10.63;2.63;;;;;;;;;;10357693;28;20219;-80
2021/03/15 04:38:59;;;;;;;8.37;2.83;;;;;;;;;;10362725;28;20220;-82
2021/03/15 04:44:02;;;;;;;10.93;2.70;;;;;;;;;;10367427;28;20263;-81
2021/03/15 04:49:07;;;;;;;8.57;3.07;;;;;;;;;;10368360;28;20217;-80
2021/03/15 04:54:10;;;;;;;10.07;3.40;;;;;;;;;;10356024;28;20220;-80
2021/03/15 04:59:12;;;;;;;8.47;2.90;;;;;;;;;;10364095;28;20216;-80
2021/03/15 05:04:15;;;;;;;8.70;2.63;;;;;;;;;;10364168;28;20263;-80
2021/03/15 05:09:18;;;;;;;8.30;2.60;;;;;;;;;;10363987;28;20223;-79
2021/03/15 05:14:20;;;;;;;8.97;2.70;;;;;;;;;;10366761;28;20231;-80
2021/03/15 05:19:23;;;;;;;10.70;2.53;;;;;;;;;;10370611;28;20217;-79
2021/03/15 05:24:27;;;;;;;9.03;2.40;;;;;;;;;;10365975;28;20605;-80
2021/03/15 05:29:30;;;;;;;9.63;2.90;;;;;;;;;;10368634;28;20814;-81
2021/03/15 05:34:32;;;;;;;6.07;2.30;;;;;;;;;;10366254;28;20219;-82
2021/03/15 05:39:36;;;;;;;7.80;2.50;;;;;;;;;;10363240;28;20218;-81
2021/03/15 05:44:48;;;;;;;8.07;2.40;;;;;;;;;;10373721;28;20776;-81
2021/03/15 05:50:05;;;;;;;9.57;2.90;;;;;;;;;;10373998;28;20304;-82
2021/03/15 05:55:22;;;;;;;7.50;2.93;;;;;;;;;;10373445;28;20288;-83
2021/03/15 06:00:32;;;;;;;9.40;3.23;;;;;;;;;;10359746;28;20299;-83
2021/03/15 06:05:35;;;;;;;10.17;3.13;;;;;;;;;;10367123;28;20241;-82
2021/03/15 06:10:52;;;;;;;9.97;3.20;;;;;;;;;;10366076;28;20220;-82
2021/03/15 06:15:55;;;;;;;9.53;3.00;;;;;;;;;;10370162;28;20216;-82
2021/03/15 06:20:57;;;;;;;10.27;2.90;;;;;;;;;;10360934;28;20247;-77
2021/03/15 06:25:59;;;;;;;14.30;3.20;;;;;;;;;;10366065;28;20316;-78
2021/03/15 06:31:02;;;;;;;12.17;2.77;;;;;;;;;;10362071;28;20212;-79
2021/03/15 06:36:05;;;;;;;11.97;2.53;;;;;;;;;;10362018;28;20216;-78
2021/03/15 06:41:07;;;;;;;12.07;2.50;;;;;;;;;;10372186;28;20254;-78
2021/03/15 06:46:14;;;;;;;14.43;3.23;;;;;;;;;;10367376;28;20794;-79
2021/03/15 06:51:18;;;;;;;16.87;3.30;;;;;;;;;;10370223;28;20298;-78
2021/03/15 06:56:20;;;;;;;15.70;3.03;;;;;;;;;;10377097;28;20223;-78
2021/03/15 07:01:24;;;;;;;14.83;2.80;;;;;;;;;;10385503;28;20236;-78
2021/03/15 07:06:34;;;;;;;13.00;2.80;;;;;;;;;;10365739;28;20274;-80
2021/03/15 07:11:36;;;;;;;11.30;2.73;;;;;;;;;;10361896;28;20215;-78
2021/03/15 07:16:39;;;;;;;14.27;3.20;;;;;;;;;;10370455;28;20760;-78
2021/03/15 07:21:41;;;;;;;14.67;3.10;;;;;;;;;;10362201;28;20233;-79
2021/03/15 07:26:44;;;;;;;12.10;3.10;;;;;;;;;;10365470;28;20308;-79
2021/03/15 07:31:48;;;;;;;17.90;2.90;;;;;;;;;;10373278;28;20212;-79
2021/03/15 07:36:54;;;;;;;15.93;3.00;;;;;;;;;;10371895;28;20216;-79
2021/03/15 07:41:57;;;;;;;14.17;3.20;;;;;;;;;;10365475;28;20252;-79
2021/03/15 07:47:01;;;;;;;15.47;3.00;;;;;;;;;;10372160;28;20655;-79
2021/03/15 07:52:04;;;;;;;13.87;3.40;;;;;;;;;;10371015;28;20220;-79
2021/03/15 07:57:20;;;;;;;8.70;2.53;;;;;;;;;;10368162;28;20274;-79
2021/03/15 08:02:24;;;;;;;9.60;2.17;;;;;;;;;;10366696;28;20361;-79
2021/03/15 08:07:26;;;;;;;17.53;2.90;;;;;;;;;;10365313;28;20217;-79
2021/03/15 08:12:29;;;;;;;12.67;2.77;;;;;;;;;;10371486;28;20230;-79
2021/03/15 08:17:33;;;;;;;12.60;2.40;;;;;;;;;;10361458;28;20566;-79
2021/03/15 08:22:40;;;;;;;13.20;2.60;;;;;;;;;;10359622;28;20691;-79
2021/03/15 08:27:43;;;;;;;12.17;2.70;;;;;;;;;;10368070;28;20213;-79
2021/03/15 08:32:46;;;;;;;12.23;2.43;;;;;;;;;;10365448;28;20228;-80
2021/03/15 08:37:48;;;;;;;12.37;2.90;;;;;;;;;;10357888;28;20220;-78
2021/03/15 08:43:11;;;;;;;15.30;2.80;;;;;;;;;;10369321;28;20275;-79
2021/03/15 08:48:14;;;;;;;13.60;3.60;;;;;;;;;;10362737;28;20237;-79
2021/03/15 08:53:33;;;;;;;11.07;2.40;;;;;;;;;;10366055;28;20216;-78
2021/03/15 08:58:39;;;;;;;11.10;2.50;;;;;;;;;;10369589;28;20644;-79
2021/03/15 09:03:49;;;;;;;10.53;2.67;;;;;;;;;;10356943;28;20241;-78
2021/03/15 09:09:01;;;;;;;12.37;2.80;;;;;;;;;;10362263;28;20246;-78
2021/03/15 09:14:20;;;;;;;13.27;2.50;;;;;;;;;;10361345;28;20221;-78
2021/03/15 09:19:23;;;;;;;13.67;2.50;;;;;;;;;;10359183;28;20217;-79
2021/03/15 09:24:45;;;;;;;13.60;2.97;;;;;;;;;;10360055;28;20738;-79
2021/03/15 09:29:52;;;;;;;13.67;3.33;;;;;;;;;;10375492;28;20258;-79
2021/03/15 09:34:56;;;;;;;12.53;3.00;;;;;;;;;;10376800;28;20227;-79
2021/03/15 09:40:03;;;;;;;11.73;2.70;;;;;;;;;;10370221;28;20220;-79
2021/03/15 09:45:05;;;;;;;11.10;2.47;;;;;;;;;;10377141;28;20240;-79
2021/03/15 09:50:19;;;;;;;12.23;2.30;;;;;;;;;;10373248;28;20657;-79
2021/03/15 09:55:21;;;;;;;10.90;2.20;;;;;;;;;;10369001;28;20705;-79
2021/03/15 10:00:23;;;;;;;11.97;2.50;;;;;;;;;;10376572;28;20231;-79
2021/03/15 10:05:26;;;;;;;7.80;2.20;;;;;;;;;;10368812;28;20246;-79
2021/03/15 10:10:28;;;;;;;10.03;2.37;;;;;;;;;;10375860;28;20216;-79
2021/03/15 10:15:30;;;;;;;12.47;2.67;;;;;;;;;;10375782;28;20732;-79
2021/03/15 10:20:34;;;;;;;11.90;2.60;;;;;;;;;;10394454;28;20303;-79
2021/03/15 10:25:37;;;;;;;10.57;3.23;;;;;;;;;;10405205;28;20233;-77
2021/03/15 10:30:39;;;;;;;9.93;2.53;;;;;;;;;;10402094;28;20279;-78
2021/03/15 10:35:42;;;;;;;10.73;2.30;;;;;;;;;;10406461;28;20217;-78
2021/03/15 10:40:45;;;;;;;8.33;2.37;;;;;;;;;;10401509;28;20213;-78
2021/03/15 10:45:47;;;;;;;14.37;2.60;;;;;;;;;;10374596;28;20290;-78
2021/03/15 10:50:54;;;;;;;9.37;2.27;;;;;;;;;;10370586;28;20904;-77
2021/03/15 10:56:01;;;;;;;11.63;2.33;;;;;;;;;;10376153;28;20223;-78
2021/03/15 11:01:20;;;;;;;10.63;2.57;;;;;;;;;;10379625;28;20263;-79
2021/03/15 11:06:28;;;;;;;11.77;2.70;;;;;;;;;;10370680;28;20247;-79
2021/03/15 11:11:31;;;;;;;11.87;2.73;;;;;;;;;;10369107;28;23326;-79
2021/03/15 11:16:34;;;;;;;14.53;2.80;;;;;;;;;;10369406;28;20228;-79
2021/03/15 11:21:41;;;;;;;9.17;2.27;;;;;;;;;;10368873;28;20343;-79
2021/03/15 11:26:43;;;;;;;9.57;2.10;;;;;;;;;;10372084;28;20231;-79
2021/03/15 11:31:48;;;;;;;10.40;2.20;;;;;;;;;;10374147;28;20291;-79
2021/03/15 11:36:52;;;;;;;9.07;2.60;;;;;;;;;;10362340;28;20270;-78
2021/03/15 11:41:55;;;;;;;15.13;2.80;;;;;;;;;;10368067;28;20259;-79
2021/03/15 11:46:57;;;;;;;13.67;2.57;;;;;;;;;;10360727;28;20216;-78
2021/03/15 11:52:00;;;;;;;9.80;2.40;;;;;;;;;;10369604;28;20590;-78
2021/03/15 11:57:04;;;;;;;8.77;2.10;;;;;;;;;;10364623;28;20769;-79
2021/03/15 12:02:06;;;;;;;13.13;2.80;;;;;;;;;;10346247;28;703238;-78
2021/03/15 12:07:09;;;;;;;11.10;2.50;;;;;;;;;;10360293;28;20290;-78
2021/03/15 12:12:11;;;;;;;13.50;2.90;;;;;;;;;;10372495;28;20224;-78
2021/03/15 12:17:14;;;;;;;14.77;3.13;;;;;;;;;;10361706;28;20224;-78
2021/03/15 12:22:17;;;;;;;20.40;3.10;;;;;;;;;;10369351;28;20243;-78
2021/03/15 12:27:19;;;;;;;13.23;2.90;;;;;;;;;;10370060;28;20216;-79
2021/03/15 12:32:22;;;;;;;17.10;3.13;;;;;;;;;;10370942;28;20251;-79
2021/03/15 12:37:25;;;;;;;10.17;2.60;;;;;;;;;;10367890;28;20223;-79
2021/03/15 12:42:27;;;;;;;11.97;2.63;;;;;;;;;;10362405;28;20239;-80
2021/03/15 12:47:29;;;;;;;14.27;2.93;;;;;;;;;;10362305;28;20697;-80
2021/03/15 12:52:32;;;;;;;19.03;3.23;;;;;;;;;;10365945;28;20216;-77
2021/03/15 12:57:34;;;;;;;16.93;3.20;;;;;;;;;;10375808;28;20707;-78
2021/03/15 13:02:37;;;;;;;22.80;3.50;;;;;;;;;;10374228;28;20958;-78
2021/03/15 13:07:40;;;;;;;15.97;2.80;;;;;;;;;;10371363;28;20223;-78
2021/03/15 13:12:42;;;;;;;11.77;2.80;;;;;;;;;;10371433;28;20874;-78
2021/03/15 13:17:46;;;;;;;10.73;3.00;;;;;;;;;;10372126;28;20227;-78
2021/03/15 13:22:49;;;;;;;13.97;2.57;;;;;;;;;;10369392;28;20232;-79
2021/03/15 13:27:53;;;;;;;10.50;2.50;;;;;;;;;;10369126;28;20236;-80
2021/03/15 13:32:55;;;;;;;9.87;3.23;;;;;;;;;;10374830;28;20263;-77
2021/03/15 13:37:58;;;;;;;16.03;3.00;;;;;;;;;;10371526;28;20802;-78
2021/03/15 13:43:01;;;;;;;12.57;2.67;;;;;;;;;;10366529;28;20343;-78
2021/03/15 13:48:03;;;;;;;12.23;2.77;;;;;;;;;;10380585;28;20217;-77
2021/03/15 13:53:07;;;;;;;13.93;3.40;;;;;;;;;;10375893;28;20585;-78
2021/03/15 13:58:09;;;;;;;19.47;3.27;;;;;;;;;;10379158;28;20217;-79
2021/03/15 14:03:11;;;;;;;17.10;3.47;;;;;;;;;;10372887;28;23068;-78
2021/03/15 14:08:14;;;;;;;16.23;3.73;;;;;;;;;;10366273;28;20329;-78
2021/03/15 14:13:16;;;;;;;18.90;3.60;;;;;;;;;;10371801;28;20220;-78
2021/03/15 14:18:18;;;;;;;12.27;2.90;;;;;;;;;;10373601;28;20234;-78
2021/03/15 14:23:21;;;;;;;18.77;3.60;;;;;;;;;;10362222;28;20244;-79
2021/03/15 14:28:25;;;;;;;18.53;3.30;;;;;;;;;;10375348;28;20715;-79
2021/03/15 14:33:27;;;;;;;19.33;4.17;;;;;;;;;;10374244;28;20732;-79
2021/03/15 14:38:30;;;;;;;21.70;3.60;;;;;;;;;;10364670;28;20209;-77
2021/03/15 14:43:32;;;;;;;20.60;3.43;;;;;;;;;;10373188;28;20257;-78
2021/03/15 14:48:34;;;;;;;14.00;3.17;;;;;;;;;;10367558;28;20339;-79
2021/03/15 14:53:37;;;;;;;22.87;3.73;;;;;;;;;;10366038;28;20227;-79
2021/03/15 14:58:39;;;;;;;19.77;3.10;;;;;;;;;;10372481;28;20216;-79
2021/03/15 15:03:41;;;;;;;16.67;3.07;;;;;;;;;;10365228;28;20236;-78
2021/03/15 15:08:44;;;;;;;14.90;3.27;;;;;;;;;;10362186;28;20224;-79
2021/03/15 15:13:47;;;;;;;15.40;3.40;;;;;;;;;;10373459;28;20588;-78
2021/03/15 15:18:48;;;;;;;15.57;3.27;;;;;;;;;;10367029;28;20224;-78
2021/03/15 15:23:53;;;;;;;21.27;4.10;;;;;;;;;;10365898;28;20243;-77
2021/03/15 15:28:55;;;;;;;18.53;3.33;;;;;;;;;;10359180;28;20279;-80
2021/03/15 15:33:57;;;;;;;18.33;3.37;;;;;;;;;;10356119;28;20271;-76
2021/03/15 15:39:00;;;;;;;17.13;3.50;;;;;;;;;;10344496;28;20217;-77
2021/03/15 15:44:02;;;;;;;20.03;3.53;;;;;;;;;;10355886;28;20236;-78
2021/03/15 15:49:04;;;;;;;15.57;3.00;;;;;;;;;;10357050;28;20312;-76
2021/03/15 15:54:07;;;;;;;12.50;2.97;;;;;;;;;;10356495;28;20677;-78
2021/03/15 15:59:09;;;;;;;13.10;2.80;;;;;;;;;;10364330;28;20312;-77
2021/03/15 16:04:11;;;;;;;9.37;2.67;;;;;;;;;;10361338;28;20240;-78
2021/03/15 16:09:14;;;;;;;13.93;2.60;;;;;;;;;;10365118;28;20216;-82
2021/03/15 16:14:17;;;;;;;12.90;2.80;;;;;;;;;;10360517;28;20222;-79
2021/03/15 16:19:19;;;;;;;16.37;2.90;;;;;;;;;;10368575;28;20665;-79
2021/03/15 16:24:22;;;;;;;15.50;2.87;;;;;;;;;;10352293;28;20406;-80
2021/03/15 16:29:24;;;;;;;16.93;3.00;;;;;;;;;;10358319;28;20312;-80
2021/03/15 16:34:36;;;;;;;23.70;3.50;;;;;;;;;;10373635;28;20260;-79
2021/03/15 16:39:39;;;;;;;11.40;3.13;;;;;;;;;;10377771;28;20244;-81
2021/03/15 16:44:41;;;;;;;12.40;3.27;;;;;;;;;;10377473;28;20248;-82
2021/03/15 16:49:43;;;;;;;16.30;3.30;;;;;;;;;;10366285;28;20220;-81
2021/03/15 16:54:48;;;;;;;17.33;3.47;;;;;;;;;;10368590;28;20217;-80
2021/03/15 16:59:50;;;;;;;18.20;3.57;;;;;;;;;;10369770;28;20295;-79
2021/03/15 17:04:53;;;;;;;19.87;4.40;;;;;;;;;;10379584;28;20265;-79
2021/03/15 17:09:55;;;;;;;20.50;3.83;;;;;;;;;;10361028;28;20208;-81
2021/03/15 17:14:57;;;;;;;18.13;3.63;;;;;;;;;;10365549;28;20312;-81
2021/03/15 17:20:01;;;;;;;19.33;4.10;;;;;;;;;;10359821;28;20216;-81
2021/03/15 17:25:04;;;;;;;24.43;4.13;;;;;;;;;;10351431;28;20282;-77
2021/03/15 17:30:07;;;;;;;18.53;3.80;;;;;;;;;;10358783;28;20775;-77
2021/03/15 17:35:10;;;;;;;23.50;4.30;;;;;;;;;;10357954;28;20219;-78
2021/03/15 17:40:13;;;;;;;18.53;3.70;;;;;;;;;;10349395;28;20594;-79
2021/03/15 17:45:16;;;;;;;17.67;3.43;;;;;;;;;;10364040;28;20257;-79
2021/03/15 17:50:20;;;;;;;23.43;4.57;;;;;;;;;;10349192;28;20223;-80
2021/03/15 17:55:23;;;;;;;18.93;3.67;;;;;;;;;;10350034;28;20217;-79
2021/03/15 18:00:25;;;;;;;23.70;4.00;;;;;;;;;;10359611;28;20727;-81
2021/03/15 18:05:27;;;;;;;20.17;3.40;;;;;;;;;;10359142;28;20244;-80
2021/03/15 18:10:32;;;;;;;22.10;3.67;;;;;;;;;;10357650;28;20635;-81
2021/03/15 18:15:34;;;;;;;19.90;3.30;;;;;;;;;;10357071;28;20216;-80
2021/03/15 18:20:37;;;;;;;18.73;3.70;;;;;;;;;;10361960;28;20286;-80
2021/03/15 18:25:40;;;;;;;21.57;3.90;;;;;;;;;;10360982;28;20259;-80
2021/03/15 18:30:42;;;;;;;22.00;3.97;;;;;;;;;;10393352;28;20697;-80
2021/03/15 18:35:44;;;;;;;16.07;3.33;;;;;;;;;;10393574;28;20746;-77
2021/03/15 18:40:48;;;;;;;17.77;3.10;;;;;;;;;;10364277;28;20231;-80
2021/03/15 18:45:50;;;;;;;19.97;3.90;;;;;;;;;;10376264;28;20263;-80
2021/03/15 18:50:53;;;;;;;18.23;3.90;;;;;;;;;;10363725;28;20222;-80
2021/03/15 18:55:57;;;;;;;19.17;3.90;;;;;;;;;;10363082;28;20635;-80
2021/03/15 19:00:59;;;;;;;19.10;3.80;;;;;;;;;;10358463;28;20795;-77
2021/03/15 19:06:01;;;;;;;21.23;3.93;;;;;;;;;;10355956;28;20277;-80
2021/03/15 19:11:04;;;;;;;23.10;4.90;;;;;;;;;;10356577;28;20223;-80
2021/03/15 19:16:06;;;;;;;16.57;3.70;;;;;;;;;;10360412;28;20721;-79
2021/03/15 19:21:08;;;;;;;17.33;3.80;;;;;;;;;;10359662;28;20997;-79
2021/03/15 19:26:11;;;;;;;18.00;3.90;;;;;;;;;;10356196;28;20808;-80
2021/03/15 19:31:13;;;;;;;20.27;3.90;;;;;;;;;;10362770;28;20216;-80
2021/03/15 19:36:15;;;;;;;24.83;3.87;;;;;;;;;;10358693;28;20208;-81
2021/03/15 19:41:18;;;;;;;19.93;4.03;;;;;;;;;;10353521;28;20677;-80
2021/03/15 19:46:21;;;;;;;24.43;4.37;;;;;;;;;;10354770;28;20242;-80
2021/03/15 19:51:23;;;;;;;22.13;4.33;;;;;;;;;;10360523;28;20295;-80
2021/03/15 19:56:26;;;;;;;18.63;4.00;;;;;;;;;;10363827;28;20280;-81
2021/03/15 20:01:29;;;;;;;20.37;4.00;;;;;;;;;;10362359;28;20247;-80
2021/03/15 20:06:31;;;;;;;15.20;3.73;;;;;;;;;;10358296;28;20417;-79
2021/03/15 20:11:34;;;;;;;23.03;4.20;;;;;;;;;;10354062;28;20223;-79
2021/03/15 20:16:36;;;;;;;23.70;4.13;;;;;;;;;;10354792;28;20271;-80
2021/03/15 20:21:38;;;;;;;22.60;4.00;;;;;;;;;;10349592;28;20221;-81
2021/03/15 20:26:41;;;;;;;18.73;3.90;;;;;;;;;;10353433;28;20460;-81
2021/03/15 20:31:44;;;;;;;23.97;4.30;;;;;;;;;;10351383;28;20303;-81
2021/03/15 20:36:50;;;;;;;22.07;4.13;;;;;;;;;;10355197;28;20207;-81
2021/03/15 20:41:53;;;;;;;18.30;3.70;;;;;;;;;;10347051;28;20741;-81
2021/03/15 20:46:55;;;;;;;22.27;4.27;;;;;;;;;;10341270;28;20236;-81
2021/03/15 20:51:59;;;;;;;19.80;3.80;;;;;;;;;;10357287;28;20216;-80
2021/03/15 20:57:01;;;;;;;18.90;4.10;;;;;;;;;;10372019;28;20313;-80
2021/03/15 21:02:04;;;;;;;23.80;4.37;;;;;;;;;;10355026;28;20346;-80
2021/03/15 21:07:09;;;;;;;22.03;4.47;;;;;;;;;;10362100;28;20251;-80
2021/03/15 21:12:12;;;;;;;22.00;4.37;;;;;;;;;;10362044;28;20633;-79
2021/03/15 21:17:14;;;;;;;19.27;3.90;;;;;;;;;;10361286;28;20249;-79
2021/03/15 21:22:16;;;;;;;19.13;3.30;;;;;;;;;;10371861;28;20209;-80
2021/03/15 21:27:19;;;;;;;20.30;3.87;;;;;;;;;;10368062;28;20303;-79
2021/03/15 21:32:21;;;;;;;23.23;4.03;;;;;;;;;;10365712;28;20217;-80
2021/03/15 21:37:24;;;;;;;20.60;3.87;;;;;;;;;;10362519;28;20669;-80
2021/03/15 21:42:27;;;;;;;23.77;3.70;;;;;;;;;;10366629;28;20219;-80
2021/03/15 21:47:29;;;;;;;20.10;4.07;;;;;;;;;;10370569;28;20437;-80
2021/03/15 21:52:31;;;;;;;26.00;4.23;;;;;;;;;;10365712;28;20295;-80
2021/03/15 21:57:34;;;;;;;20.63;4.23;;;;;;;;;;10367478;28;20326;-80
2021/03/15 22:02:40;;;;;;;27.43;3.97;;;;;;;;;;10365419;28;20738;-80
2021/03/15 22:07:44;;;;;;;17.87;3.60;;;;;;;;;;10363619;28;20219;-80
2021/03/15 22:12:47;;;;;;;20.80;3.73;;;;;;;;;;10365063;28;20227;-80
2021/03/15 22:17:49;;;;;;;21.13;3.90;;;;;;;;;;10366534;28;20212;-81
2021/03/15 22:22:51;;;;;;;13.97;3.20;;;;;;;;;;10378954;28;20239;-80
2021/03/15 22:28:02;;;;;;;14.33;3.33;;;;;;;;;;10367121;28;20231;-80
2021/03/15 22:33:05;;;;;;;11.47;2.80;;;;;;;;;;10369489;28;20248;-80
2021/03/15 22:38:07;;;;;;;14.67;3.10;;;;;;;;;;10363295;28;20735;-80
2021/03/15 22:43:10;;;;;;;16.43;3.70;;;;;;;;;;10364837;28;20590;-81
2021/03/15 22:48:13;;;;;;;16.17;3.23;;;;;;;;;;10376082;28;20215;-80
2021/03/15 22:53:15;;;;;;;22.83;3.13;;;;;;;;;;10361003;28;20227;-80
2021/03/15 22:58:17;;;;;;;15.30;3.17;;;;;;;;;;10365404;28;20670;-79
2021/03/15 23:03:19;;;;;;;18.87;3.40;;;;;;;;;;10368140;28;20232;-80
2021/03/15 23:08:21;;;;;;;21.17;3.37;;;;;;;;;;10351338;28;20241;-80
2021/03/15 23:13:24;;;;;;;16.60;3.13;;;;;;;;;;10364582;28;20219;-80
2021/03/15 23:18:26;;;;;;;14.27;2.53;;;;;;;;;;10367231;28;20690;-80
2021/03/15 23:23:32;;;;;;;14.73;2.70;;;;;;;;;;10363347;28;20255;-80
2021/03/15 23:28:38;;;;;;;15.07;2.67;;;;;;;;;;10364961;28;22056;-80
2021/03/15 23:33:40;;;;;;;15.43;2.50;;;;;;;;;;10355411;28;20735;-80
2021/03/15 23:38:42;;;;;;;9.60;2.27;;;;;;;;;;10357570;28;20221;-80
2021/03/15 23:43:44;;;;;;;16.23;3.47;;;;;;;;;;10370667;28;20241;-80
2021/03/15 23:48:46;;;;;;;18.83;3.10;;;;;;;;;;10358070;28;20228;-80
2021/03/15 23:53:49;;;;;;;14.53;3.07;;;;;;;;;;10358080;28;20678;-81
2021/03/15 23:58:51;;;;;;;13.07;3.00;;;;;;;;;;10367123;28;20220;-81
